createdAt,value
2022-08-22T00:02:14.049Z,1.83
2022-08-22T00:03:04.494Z,2.85
2022-08-22T00:05:13.997Z,1.88
2022-08-22T00:08:11.959Z,1.33
2022-08-22T00:11:03.598Z,1.58
2022-08-22T00:13:40.699Z,1.35
2022-08-22T00:16:18.059Z,2.17
2022-08-22T00:18:56.243Z,1.75
2022-08-22T00:21:47.513Z,1.45
2022-08-22T00:24:55.088Z,1.40
2022-08-22T00:27:29.580Z,1.50
2022-08-22T00:30:09.338Z,1.50
2022-08-22T00:32:53.023Z,1.48
2022-08-22T00:35:32.217Z,1.75
2022-08-22T00:38:29.636Z,1.40
2022-08-22T00:41:54.091Z,1.65
2022-08-22T00:44:43.938Z,1.50
2022-08-22T00:47:52.951Z,1.17
2022-08-22T00:50:39.767Z,1.42
2022-08-22T00:53:38.009Z,1.42
2022-08-22T00:56:39.966Z,1.50
2022-08-22T01:00:00.740Z,1.67
2022-08-22T01:03:06.555Z,1.10
2022-08-22T01:06:14.746Z,1.65
2022-08-22T01:08:45.902Z,1.35
2022-08-22T01:12:08.239Z,1.20
2022-08-22T01:14:49.599Z,1.20
2022-08-22T01:17:20.657Z,1.92
2022-08-22T01:20:28.334Z,1.40
2022-08-22T01:23:24.801Z,1.30
2022-08-22T01:26:36.406Z,1.80
2022-08-22T01:29:43.835Z,1.10
2022-08-22T01:32:42.981Z,1.45
2022-08-22T01:35:28.779Z,1.35
2022-08-22T01:38:26.167Z,1.95
2022-08-22T01:41:17.762Z,1.55
2022-08-22T01:44:40.217Z,1.55
2022-08-22T01:47:46.719Z,1.40
2022-08-22T01:50:38.566Z,1.25
2022-08-22T01:53:12.996Z,1.33
2022-08-22T01:56:19.609Z,1.67
2022-08-22T01:59:12.433Z,1.67
2022-08-22T02:02:08.114Z,1.55
2022-08-22T02:04:47.478Z,1.80
2022-08-22T02:07:26.501Z,1.25
2022-08-22T02:10:29.544Z,1.70
2022-08-22T02:13:08.559Z,1.30
2022-08-22T02:16:09.610Z,1.45
2022-08-22T02:19:20.340Z,1.70
2022-08-22T02:21:52.497Z,1.55
2022-08-22T02:25:02.671Z,1.50
2022-08-22T02:30:55.740Z,2.10
2022-08-22T02:33:34.448Z,1.38
2022-08-22T02:36:25.395Z,1.33
2022-08-22T02:39:06.479Z,1.40
2022-08-22T02:42:06.955Z,1.85
2022-08-22T02:45:03.392Z,1.52
2022-08-22T02:47:50.195Z,1.50
2022-08-22T02:50:31.027Z,1.38
2022-08-22T02:53:09.318Z,1.33
2022-08-22T02:55:59.468Z,1.30
2022-08-22T02:58:51.431Z,1.52
2022-08-22T03:01:24.557Z,1.40
2022-08-22T03:07:40.255Z,1.00
2022-08-22T03:10:29.161Z,1.10
2022-08-22T03:13:09.918Z,1.20
2022-08-22T03:15:53.592Z,1.50
2022-08-22T03:18:45.846Z,1.40
2022-08-22T03:21:37.399Z,1.65
2022-08-22T03:24:19.222Z,1.60
2022-08-22T03:26:53.684Z,1.48
2022-08-22T03:29:26.828Z,1.30
2022-08-22T03:32:20.019Z,1.75
2022-08-22T03:35:05.441Z,1.35
2022-08-22T03:37:37.972Z,1.13
2022-08-22T03:40:24.968Z,1.80
2022-08-22T03:43:15.035Z,1.40
2022-08-22T03:46:07.548Z,1.25
2022-08-22T03:49:02.472Z,2.38
2022-08-22T03:51:52.420Z,1.40
2022-08-22T03:54:40.978Z,1.35
2022-08-22T03:57:25.317Z,1.55
2022-08-22T04:00:14.841Z,1.33
2022-08-22T04:03:20.514Z,1.80
2022-08-22T04:06:12.624Z,1.23
2022-08-22T04:09:25.813Z,1.60
2022-08-22T04:12:24.574Z,1.50
2022-08-22T04:20:56.903Z,3.00
2022-08-22T04:23:54.256Z,1.63
2022-08-22T04:26:48.362Z,1.63
2022-08-22T04:32:51.385Z,2.13
2022-08-22T04:35:33.148Z,1.98
2022-08-22T04:38:09.241Z,1.85
2022-08-22T04:41:15.184Z,1.70
2022-08-22T04:44:14.613Z,1.83
2022-08-22T04:46:59.169Z,2.30
2022-08-22T04:49:39.884Z,2.00
2022-08-22T04:52:22.044Z,2.25
2022-08-22T04:55:34.232Z,1.88
2022-08-22T04:58:54.651Z,1.60
2022-08-22T05:01:26.783Z,2.00
2022-08-22T05:04:10.934Z,2.28
2022-08-22T05:06:44.150Z,2.45
2022-08-22T05:09:21.127Z,2.13
2022-08-22T05:11:53.288Z,2.45
2022-08-22T05:14:51.994Z,2.33
2022-08-22T05:17:27.107Z,2.30
2022-08-22T05:19:58.372Z,1.90
2022-08-22T05:22:33.308Z,2.00
2022-08-22T05:25:25.572Z,1.88
2022-08-22T05:28:02.678Z,1.73
2022-08-22T05:30:33.984Z,1.80
2022-08-22T05:33:14.295Z,2.40
2022-08-22T05:35:52.438Z,1.67
2022-08-22T05:38:29.335Z,1.55
2022-08-22T05:41:10.581Z,2.25
2022-08-22T05:43:43.464Z,1.85
2022-08-22T05:46:44.686Z,2.10
2022-08-22T05:49:51.836Z,2.05
2022-08-22T05:52:45.280Z,2.20
2022-08-22T05:55:31.332Z,2.42
2022-08-22T05:58:26.704Z,1.92
2022-08-22T06:01:07.640Z,2.10
2022-08-22T06:03:47.621Z,2.25
2022-08-22T06:06:18.653Z,2.13
2022-08-22T06:09:04.954Z,1.85
2022-08-22T06:11:52.027Z,2.13
2022-08-22T06:14:41.794Z,2.58
2022-08-22T06:17:12.290Z,1.90
2022-08-22T06:19:45.541Z,1.80
2022-08-22T06:22:37.162Z,2.05
2022-08-22T06:25:13.800Z,2.35
2022-08-22T06:27:44.110Z,1.80
2022-08-22T06:30:15.277Z,2.17
2022-08-22T06:32:59.083Z,1.70
2022-08-22T06:35:51.244Z,2.15
2022-08-22T06:38:21.855Z,2.20
2022-08-22T06:40:54.664Z,1.92
2022-08-22T06:43:24.997Z,1.60
2022-08-22T06:45:53.752Z,2.42
2022-08-22T06:48:24.077Z,2.60
2022-08-22T06:50:58.780Z,2.15
2022-08-22T06:53:48.567Z,2.42
2022-08-22T06:56:40.834Z,1.80
2022-08-22T06:59:14.040Z,1.58
2022-08-22T07:02:08.351Z,1.40
2022-08-22T07:04:37.082Z,1.95
2022-08-22T07:07:06.297Z,1.95
2022-08-22T07:09:40.998Z,2.22
2022-08-22T07:12:19.633Z,1.65
2022-08-22T07:14:51.254Z,1.83
2022-08-22T07:20:28.406Z,1.80
2022-08-22T07:23:03.930Z,2.83
2022-08-22T07:25:35.653Z,2.30
2022-08-22T07:28:36.754Z,1.73
2022-08-22T07:31:17.746Z,1.70
2022-08-22T07:33:53.503Z,2.70
2022-08-22T07:36:23.090Z,1.85
2022-08-22T07:39:19.190Z,2.53
2022-08-22T07:41:55.574Z,2.67
2022-08-22T07:44:27.238Z,2.70
2022-08-22T07:47:00.830Z,1.98
2022-08-22T07:49:37.674Z,1.60
2022-08-22T07:52:25.255Z,3.33
2022-08-22T07:54:58.262Z,2.80
2022-08-22T07:57:36.396Z,2.50
2022-08-22T08:00:15.312Z,2.85
2022-08-22T08:02:51.227Z,3.00
2022-08-22T08:05:23.570Z,2.97
2022-08-22T08:07:54.762Z,3.28
2022-08-22T08:10:28.473Z,3.53
2022-08-22T08:13:05.259Z,3.53
2022-08-22T08:15:37.783Z,3.53
2022-08-22T08:18:12.524Z,3.13
2022-08-22T08:20:40.608Z,3.50
2022-08-22T08:23:11.267Z,3.72
2022-08-22T08:26:01.853Z,2.90
2022-08-22T08:28:36.453Z,3.17
2022-08-22T08:31:43.097Z,4.03
2022-08-22T08:34:20.478Z,3.30
2022-08-22T08:36:54.770Z,3.35
2022-08-22T08:39:28.574Z,3.35
2022-08-22T08:42:21.226Z,3.45
2022-08-22T08:45:07.838Z,3.38
2022-08-22T08:48:01.245Z,3.10
2022-08-22T08:50:50.523Z,2.92
2022-08-22T08:53:47.238Z,2.95
2022-08-22T08:56:54.431Z,3.10
2022-08-22T08:59:44.046Z,2.83
2022-08-22T09:02:23.691Z,3.58
2022-08-22T09:05:44.277Z,3.20
2022-08-22T09:08:24.985Z,3.03
2022-08-22T09:11:28.566Z,2.95
2022-08-22T09:14:15.368Z,3.35
2022-08-22T09:17:02.089Z,2.63
2022-08-22T09:19:33.032Z,3.30
2022-08-22T09:22:04.492Z,3.50
2022-08-22T09:24:47.480Z,3.67
2022-08-22T09:27:39.747Z,3.72
2022-08-22T09:33:13.602Z,3.20
2022-08-22T09:36:06.398Z,3.45
2022-08-22T09:39:03.955Z,3.22
2022-08-22T09:42:08.077Z,3.08
2022-08-22T09:44:44.834Z,3.15
2022-08-22T09:47:35.350Z,3.13
2022-08-22T09:53:37.351Z,3.30
2022-08-22T09:56:15.315Z,3.00
2022-08-22T09:59:09.695Z,3.45
2022-08-22T10:01:57.743Z,3.17
2022-08-22T10:04:42.108Z,3.40
2022-08-22T10:07:31.644Z,3.10
2022-08-22T10:10:22.686Z,3.30
2022-08-22T10:13:04.285Z,2.97
2022-08-22T10:15:45.222Z,3.40
2022-08-22T10:18:16.203Z,3.38
2022-08-22T10:20:50.103Z,2.53
2022-08-22T10:23:24.495Z,2.85
2022-08-22T10:26:08.359Z,3.33
2022-08-22T10:28:51.479Z,3.47
2022-08-22T10:31:32.870Z,3.83
2022-08-22T10:34:09.818Z,3.53
2022-08-22T10:37:11.190Z,3.38
2022-08-22T10:39:55.249Z,3.42
2022-08-22T10:42:41.729Z,3.60
2022-08-22T10:45:37.120Z,3.30
2022-08-22T10:48:08.798Z,3.40
2022-08-22T10:50:40.834Z,3.95
2022-08-22T10:53:48.705Z,3.15
2022-08-22T10:56:51.473Z,3.90
2022-08-22T10:59:41.944Z,3.45
2022-08-22T11:02:28.103Z,3.70
2022-08-22T11:05:20.436Z,3.70
2022-08-22T11:07:59.122Z,3.88
2022-08-22T11:10:55.427Z,3.88
2022-08-22T11:13:38.276Z,4.03
2022-08-22T11:16:42.407Z,3.72
2022-08-22T11:19:24.201Z,3.78
2022-08-22T11:22:26.054Z,3.67
2022-08-22T11:25:15.572Z,3.25
2022-08-22T11:28:18.791Z,3.92
2022-08-22T11:31:03.612Z,3.83
2022-08-22T11:33:53.364Z,3.97
2022-08-22T11:36:46.985Z,3.40
2022-08-22T11:39:45.602Z,3.28
2022-08-22T11:42:23.385Z,3.28
2022-08-22T11:45:05.050Z,3.65
2022-08-22T11:47:42.379Z,3.33
2022-08-22T11:50:42.940Z,3.83
2022-08-22T11:53:38.502Z,3.70
2022-08-22T11:56:49.320Z,3.95
2022-08-22T11:59:43.983Z,3.63
2022-08-22T12:05:26.315Z,3.25
2022-08-22T12:08:29.984Z,3.30
2022-08-22T12:11:25.597Z,2.90
2022-08-22T12:14:06.304Z,3.15
2022-08-22T12:16:34.488Z,4.07
2022-08-22T12:19:10.125Z,3.15
2022-08-22T12:22:12.374Z,3.78
2022-08-22T12:24:47.051Z,3.30
2022-08-22T12:28:15.835Z,3.60
2022-08-22T12:30:44.006Z,3.22
2022-08-22T12:33:33.124Z,2.88
2022-08-22T12:36:18.323Z,3.70
2022-08-22T12:39:12.824Z,3.08
2022-08-22T12:41:48.251Z,3.47
2022-08-22T12:44:22.354Z,3.60
2022-08-22T12:47:12.040Z,3.78
2022-08-22T12:50:08.083Z,3.38
2022-08-22T12:53:01.622Z,3.25
2022-08-22T12:56:06.708Z,3.72
2022-08-22T12:58:46.423Z,3.55
2022-08-22T13:01:43.652Z,3.50
2022-08-22T13:04:33.276Z,3.33
2022-08-22T13:07:18.791Z,3.83
2022-08-22T13:12:29.700Z,3.50
2022-08-22T13:15:25.440Z,3.35
2022-08-22T13:17:55.166Z,3.30
2022-08-22T13:20:40.414Z,3.30
2022-08-22T13:23:27.717Z,3.55
2022-08-22T13:26:08.390Z,3.65
2022-08-22T13:28:44.647Z,3.83
2022-08-22T13:31:50.953Z,3.78
2022-08-22T13:34:40.049Z,3.28
2022-08-22T13:37:15.685Z,3.35
2022-08-22T13:39:49.191Z,3.42
2022-08-22T13:42:30.383Z,4.03
2022-08-22T13:45:04.767Z,3.72
2022-08-22T13:47:39.629Z,3.38
2022-08-22T13:50:12.832Z,3.53
2022-08-22T13:52:55.323Z,3.38
2022-08-22T13:55:49.804Z,3.90
2022-08-22T13:58:20.633Z,3.80
2022-08-22T14:01:20.194Z,3.40
2022-08-22T14:04:28.575Z,3.65
2022-08-22T14:07:37.881Z,3.63
2022-08-22T14:10:18.531Z,3.20
2022-08-22T14:13:38.229Z,3.58
2022-08-22T14:16:19.716Z,3.55
2022-08-22T14:18:56.762Z,3.38
2022-08-22T14:21:43.142Z,3.70
2022-08-22T14:24:55.790Z,3.40
2022-08-22T14:28:01.291Z,3.50
2022-08-22T14:31:00.722Z,3.85
2022-08-22T14:33:36.665Z,4.28
2022-08-22T14:36:19.773Z,3.80
2022-08-22T14:38:56.404Z,3.67
2022-08-22T14:41:52.509Z,3.55
2022-08-22T14:44:51.907Z,3.90
2022-08-22T14:47:43.573Z,4.03
2022-08-22T14:50:40.308Z,3.15
2022-08-22T14:53:19.411Z,3.70
2022-08-22T14:56:04.947Z,4.10
2022-08-22T14:58:50.071Z,3.63
2022-08-22T15:01:22.135Z,3.40
2022-08-22T15:03:56.695Z,3.80
2022-08-22T15:06:50.863Z,4.25
2022-08-22T15:09:40.588Z,3.30
2022-08-22T15:12:31.009Z,3.42
2022-08-22T15:15:02.204Z,4.00
2022-08-22T15:17:50.955Z,3.30
2022-08-22T15:20:26.101Z,3.38
2022-08-22T15:25:34.341Z,3.17
2022-08-22T15:28:14.056Z,3.25
2022-08-22T15:30:49.512Z,3.95
2022-08-22T15:33:24.121Z,4.00
2022-08-22T15:35:54.741Z,3.88
2022-08-22T15:38:36.268Z,3.53
2022-08-22T15:41:23.197Z,3.13
2022-08-22T15:44:04.217Z,3.88
2022-08-22T15:46:42.358Z,3.63
2022-08-22T15:49:22.862Z,3.55
2022-08-22T15:52:01.090Z,4.25
2022-08-22T15:54:32.039Z,3.95
2022-08-22T15:57:18.865Z,4.13
2022-08-22T15:59:58.387Z,3.95
2022-08-22T16:02:36.642Z,3.55
2022-08-22T16:05:10.806Z,3.47
2022-08-22T16:07:57.584Z,4.30
2022-08-22T16:10:25.648Z,4.07
2022-08-22T16:13:27.716Z,4.45
2022-08-22T16:16:26.662Z,3.65
2022-08-22T16:18:54.565Z,3.65
2022-08-22T16:21:22.513Z,3.75
2022-08-22T16:23:50.449Z,3.50
2022-08-22T16:26:29.650Z,4.10
2022-08-22T16:29:18.059Z,3.60
2022-08-22T16:31:49.400Z,3.58
2022-08-22T16:34:17.395Z,4.35
2022-08-22T16:36:53.699Z,3.63
2022-08-22T16:39:21.673Z,4.68
2022-08-22T16:42:14.761Z,3.70
2022-08-22T16:45:31.046Z,3.85
2022-08-22T16:48:13.587Z,3.50
2022-08-22T16:50:42.625Z,3.60
2022-08-22T16:53:28.707Z,3.40
2022-08-22T16:56:14.895Z,4.47
2022-08-22T16:59:06.056Z,3.67
2022-08-22T17:01:55.299Z,4.47
2022-08-22T17:05:04.498Z,4.07
2022-08-22T17:07:35.439Z,3.50
2022-08-22T17:10:14.293Z,3.72
2022-08-22T17:12:54.941Z,3.92
2022-08-22T17:15:32.068Z,3.90
2022-08-22T17:18:15.524Z,3.85
2022-08-22T17:24:00.582Z,3.60
2022-08-22T17:26:50.388Z,3.88
2022-08-22T17:29:43.453Z,3.80
2022-08-22T17:35:38.669Z,3.35
2022-08-22T17:38:39.896Z,3.78
2022-08-22T17:41:35.882Z,3.40
2022-08-22T17:44:16.052Z,4.15
2022-08-22T17:46:52.815Z,4.40
2022-08-22T17:49:25.049Z,3.83
2022-08-22T17:52:09.940Z,3.90
2022-08-22T17:55:01.537Z,3.50
2022-08-22T17:57:32.552Z,4.35
2022-08-22T18:00:15.551Z,4.28
2022-08-22T18:03:05.373Z,4.43
2022-08-22T18:05:58.587Z,3.60
2022-08-22T18:08:38.199Z,4.00
2022-08-22T18:11:19.596Z,4.18
2022-08-22T18:14:08.833Z,4.18
2022-08-22T18:16:51.335Z,3.65
2022-08-22T18:19:44.312Z,3.80
2022-08-22T18:22:28.537Z,4.93
2022-08-22T18:25:08.937Z,4.03
2022-08-22T18:27:59.789Z,3.53
2022-08-22T18:30:36.734Z,4.07
2022-08-22T18:33:22.617Z,3.88
2022-08-22T18:36:02.978Z,3.83
2022-08-22T18:39:15.407Z,4.47
2022-08-22T18:41:50.624Z,4.32
2022-08-22T18:44:28.937Z,3.78
2022-08-22T18:47:00.466Z,4.32
2022-08-22T18:49:28.431Z,4.03
2022-08-22T18:52:08.545Z,4.30
2022-08-22T18:54:50.005Z,3.72
2022-08-22T18:57:42.553Z,4.05
2022-08-22T19:00:21.333Z,4.55
2022-08-22T19:03:07.788Z,3.58
2022-08-22T19:06:09.485Z,3.97
2022-08-22T19:09:02.070Z,4.35
2022-08-22T19:11:58.022Z,4.65
2022-08-22T19:18:13.717Z,4.82
2022-08-22T19:21:00.257Z,4.63
2022-08-22T19:23:34.460Z,4.45
2022-08-22T19:26:24.112Z,3.63
2022-08-22T19:28:55.354Z,3.80
2022-08-22T19:31:57.984Z,4.25
2022-08-22T19:34:25.824Z,4.85
2022-08-22T19:37:33.341Z,4.13
2022-08-22T19:40:06.940Z,4.47
2022-08-22T19:45:40.501Z,4.63
2022-08-22T19:48:14.188Z,3.95
2022-08-22T19:50:44.170Z,5.25
2022-08-22T19:53:33.929Z,4.82
2022-08-22T19:56:26.846Z,3.47
2022-08-22T19:59:39.267Z,3.38
2022-08-22T20:03:02.797Z,3.85
2022-08-22T20:05:56.693Z,4.88
2022-08-22T20:08:40.435Z,3.60
2022-08-22T20:11:38.030Z,4.47
2022-08-22T20:14:29.980Z,4.80
2022-08-22T20:17:13.486Z,4.38
2022-08-22T20:22:39.134Z,4.78
2022-08-22T20:25:07.042Z,4.70
2022-08-22T20:28:10.029Z,3.90
2022-08-22T20:30:41.700Z,4.63
2022-08-22T20:33:14.306Z,3.80
2022-08-22T20:36:27.107Z,3.78
2022-08-22T20:39:11.209Z,3.65
2022-08-22T20:41:47.349Z,3.70
2022-08-22T20:44:18.467Z,4.97
2022-08-22T20:46:46.554Z,4.53
2022-08-22T20:49:22.029Z,4.40
2022-08-22T20:51:59.758Z,4.60
2022-08-22T20:54:31.230Z,4.18
2022-08-22T20:57:19.597Z,4.88
2022-08-22T21:00:04.340Z,4.40
2022-08-22T21:02:53.783Z,4.32
2022-08-22T21:08:18.500Z,3.97
2022-08-22T21:11:16.046Z,4.75
2022-08-22T21:13:44.141Z,4.43
2022-08-22T21:16:31.567Z,4.32
2022-08-22T21:19:04.232Z,3.92
2022-08-22T21:21:34.714Z,4.68
2022-08-22T21:24:06.349Z,3.83
2022-08-22T21:26:41.033Z,4.07
2022-08-22T21:29:15.279Z,4.68
2022-08-22T21:31:49.257Z,4.35
2022-08-22T21:34:20.486Z,4.03
2022-08-22T21:37:08.530Z,3.65
2022-08-22T21:39:45.116Z,4.82
2022-08-22T21:42:24.602Z,5.38
2022-08-22T21:47:53.211Z,4.00
2022-08-22T21:50:41.536Z,4.38
2022-08-22T21:53:27.838Z,3.45
2022-08-22T21:56:12.527Z,4.95
2022-08-22T21:58:41.717Z,5.85
2022-08-22T22:01:31.413Z,5.85
2022-08-22T22:04:00.116Z,4.05
2022-08-22T22:06:28.376Z,4.55
2022-08-22T22:08:56.590Z,4.07
2022-08-22T22:11:43.772Z,4.75
2022-08-22T22:14:11.993Z,4.32
2022-08-22T22:16:40.066Z,5.05
2022-08-22T22:19:09.177Z,4.70
2022-08-22T22:21:38.876Z,5.43
2022-08-22T22:24:26.037Z,4.85
2022-08-22T22:26:54.275Z,4.13
2022-08-22T22:29:40.753Z,5.20
2022-08-22T22:32:09.520Z,4.72
2022-08-22T22:34:56.295Z,3.95
2022-08-22T22:37:24.536Z,4.57
2022-08-22T22:39:53.242Z,4.20
2022-08-22T22:42:40.006Z,4.68
2022-08-22T22:45:08.959Z,4.50
2022-08-22T22:47:38.034Z,5.47
2022-08-22T22:50:07.478Z,5.40
2022-08-22T22:52:40.634Z,3.55
2022-08-22T22:55:28.593Z,4.57
2022-08-22T22:58:00.074Z,3.97
2022-08-22T23:00:31.431Z,5.32
2022-08-22T23:03:05.219Z,3.63
2022-08-22T23:05:51.725Z,4.05
2022-08-22T23:08:20.456Z,4.22
2022-08-22T23:10:48.519Z,5.22
2022-08-22T23:13:17.283Z,6.60
2022-08-22T23:15:45.739Z,4.15
2022-08-22T23:18:13.767Z,5.43
2022-08-22T23:20:41.903Z,3.60
2022-08-22T23:23:10.014Z,3.35
2022-08-22T23:25:38.160Z,4.45
2022-08-22T23:28:24.856Z,4.60
2022-08-22T23:30:53.485Z,4.45
2022-08-22T23:33:21.512Z,3.40
2022-08-22T23:36:27.480Z,4.25
2022-08-22T23:39:15.841Z,4.60
2022-08-22T23:41:45.210Z,4.40
2022-08-22T23:44:37.954Z,5.10
2022-08-22T23:47:08.088Z,3.40
2022-08-22T23:49:37.565Z,3.95
2022-08-22T23:52:07.543Z,4.00
2022-08-22T23:54:35.890Z,4.53
2022-08-22T23:57:12.124Z,4.60
2022-08-22T23:59:46.407Z,5.13
